Time;durP1;ratioP1;P1;durP2;ratioP2;P2;SDS_P1;SDS_P2;PMS_P1;PMS_P2;Temp;Humidity;BMP_temperature;BMP_pressure;BME280_temperature;BME280_humidity;BME280_pressure;Samples;Min_cycle;Max_cycle;Signal;HPM_P1;HPM_P2
2024/01/11 00:02:13;;;;;;;23.73;11.15;;;-4.10;99.90;;;;;;4941133;29;20072;-75
2024/01/11 00:04:40;;;;;;;14.90;9.32;;;-4.20;99.90;;;;;;4944596;29;20040;-78
2024/01/11 00:07:05;;;;;;;21.63;11.65;;;-4.20;99.90;;;;;;4944790;29;20071;-76
2024/01/11 00:09:31;;;;;;;21.92;10.85;;;-4.20;99.90;;;;;;4959379;29;20356;-77
2024/01/11 00:11:57;;;;;;;27.15;11.70;;;-4.10;99.90;;;;;;4945908;29;20046;-76
2024/01/11 00:14:22;;;;;;;18.38;10.40;;;-4.10;99.90;;;;;;4944034;29;20464;-77
2024/01/11 00:16:48;;;;;;;19.50;11.00;;;-4.10;99.90;;;;;;4947932;29;20051;-76
2024/01/11 00:19:13;;;;;;;25.08;11.48;;;-4.10;99.90;;;;;;4945273;29;20477;-76
2024/01/11 00:21:39;;;;;;;17.70;10.52;;;-4.20;99.90;;;;;;4942296;29;20024;-77
2024/01/11 00:24:05;;;;;;;19.73;9.45;;;-4.10;99.90;;;;;;4941466;29;20047;-76
2024/01/11 00:26:30;;;;;;;22.55;10.55;;;-4.10;99.90;;;;;;4943866;29;20080;-77
2024/01/11 00:28:56;;;;;;;29.90;13.60;;;-4.10;99.90;;;;;;4943516;29;20035;-77
2024/01/11 00:31:21;;;;;;;28.63;11.85;;;-4.10;99.90;;;;;;4941554;29;20044;-76
2024/01/11 00:33:47;;;;;;;36.22;14.35;;;-4.20;99.90;;;;;;4942490;29;20036;-76
2024/01/11 00:36:18;;;;;;;25.58;12.82;;;-4.20;99.90;;;;;;4940156;29;20032;-75
2024/01/11 00:38:44;;;;;;;24.95;11.38;;;-4.30;99.90;;;;;;4943029;29;20028;-76
2024/01/11 00:41:10;;;;;;;26.63;12.27;;;-4.40;99.90;;;;;;4944601;29;20043;-76
2024/01/11 00:43:35;;;;;;;32.33;13.10;;;-4.50;99.90;;;;;;4944715;29;20028;-76
2024/01/11 00:46:01;;;;;;;34.58;12.82;;;-4.50;99.90;;;;;;4943226;29;20028;-76
2024/01/11 00:48:29;;;;;;;31.35;13.10;;;-4.50;99.90;;;;;;4944499;29;20040;-76
2024/01/11 00:50:54;;;;;;;28.90;11.93;;;-4.50;99.90;;;;;;4942917;29;20035;-77
2024/01/11 00:53:20;;;;;;;22.77;12.32;;;-4.40;99.90;;;;;;4942743;29;20124;-76
2024/01/11 00:55:46;;;;;;;25.20;12.88;;;-4.30;99.90;;;;;;4943387;29;20027;-76
2024/01/11 00:58:11;;;;;;;37.22;12.73;;;-4.30;99.90;;;;;;4943761;29;20715;-76
2024/01/11 01:00:37;;;;;;;21.48;12.07;;;-4.30;99.90;;;;;;4943144;29;20040;-76
2024/01/11 01:03:03;;;;;;;31.02;14.40;;;-4.20;99.90;;;;;;4942227;29;20035;-72
2024/01/11 01:05:28;;;;;;;34.30;13.40;;;-4.30;99.90;;;;;;4921844;29;20115;-73
2024/01/11 01:07:54;;;;;;;29.45;13.45;;;-4.30;99.90;;;;;;4937817;29;20031;-72
2024/01/11 01:10:19;;;;;;;38.53;16.65;;;-4.30;99.90;;;;;;4935824;29;20617;-72
2024/01/11 01:12:45;;;;;;;35.47;15.02;;;-4.40;99.90;;;;;;4921888;29;20024;-76
2024/01/11 01:15:11;;;;;;;24.33;11.15;;;-4.40;99.90;;;;;;4944575;29;20047;-77
2024/01/11 01:17:37;;;;;;;38.70;17.58;;;-4.50;99.90;;;;;;4943919;28;20024;-79
2024/01/11 01:20:03;;;;;;;44.30;20.15;;;-4.50;99.90;;;;;;4943592;29;20114;-82
2024/01/11 01:22:29;;;;;;;38.30;19.02;;;-4.60;99.90;;;;;;4944790;29;20047;-82
2024/01/11 01:24:54;;;;;;;53.72;20.13;;;-4.60;99.90;;;;;;4941999;28;20612;-78
2024/01/11 01:27:20;;;;;;;39.58;16.48;;;-4.70;99.90;;;;;;4942770;28;20123;-77
2024/01/11 01:29:46;;;;;;;42.00;18.55;;;-4.80;99.90;;;;;;4943509;28;20036;-78
2024/01/11 01:32:11;;;;;;;33.35;14.68;;;-4.70;99.90;;;;;;4945228;29;20535;-76
2024/01/11 01:34:37;;;;;;;31.35;13.27;;;-4.70;99.90;;;;;;4939517;28;20059;-77
2024/01/11 01:37:03;;;;;;;28.63;13.27;;;-4.70;99.90;;;;;;4942729;28;20040;-78
2024/01/11 01:39:28;;;;;;;52.45;19.55;;;-4.70;99.90;;;;;;4943094;29;20047;-77
2024/01/11 01:41:54;;;;;;;27.48;14.30;;;-4.70;99.90;;;;;;4941778;29;20032;-77
2024/01/11 01:44:20;;;;;;;32.33;14.85;;;-4.70;99.90;;;;;;4942198;28;20048;-77
2024/01/11 01:46:46;;;;;;;21.85;11.23;;;-4.70;99.90;;;;;;4942663;29;20031;-76
2024/01/11 01:49:12;;;;;;;32.35;15.25;;;-4.60;99.90;;;;;;4942104;28;20039;-77
2024/01/11 01:51:38;;;;;;;24.75;10.77;;;-4.60;99.90;;;;;;4942587;28;20042;-79
2024/01/11 01:54:05;;;;;;;27.00;14.45;;;-4.60;99.90;;;;;;4940959;29;20381;-77
2024/01/11 01:56:31;;;;;;;40.97;15.43;;;-4.60;99.90;;;;;;4941821;29;20028;-78
2024/01/11 01:58:59;;;;;;;23.10;13.30;;;-4.60;99.90;;;;;;4940828;29;20011;-76
2024/01/11 02:01:27;;;;;;;46.07;17.77;;;-4.60;99.90;;;;;;4923948;29;20047;-76
2024/01/11 02:03:55;;;;;;;28.88;14.82;;;-4.60;99.90;;;;;;4940895;29;20298;-77
2024/01/11 02:06:25;;;;;;;27.02;14.98;;;-4.70;99.90;;;;;;4940924;29;20104;-81
2024/01/11 02:08:53;;;;;;;44.58;17.98;;;-4.70;99.90;;;;;;4942945;29;20037;-85
2024/01/11 02:11:21;;;;;;;27.52;15.80;;;-4.70;99.90;;;;;;4942374;29;20126;-81
2024/01/11 02:13:47;;;;;;;32.88;15.23;;;-4.70;99.90;;;;;;4939555;29;20093;-76
2024/01/11 02:16:13;;;;;;;40.17;16.75;;;-4.70;99.90;;;;;;4937388;29;20039;-75
2024/01/11 02:18:39;;;;;;;30.23;14.18;;;-4.60;99.90;;;;;;4937164;29;20039;-77
2024/01/11 02:21:09;;;;;;;32.80;15.38;;;-4.60;99.90;;;;;;4942338;29;20067;-75
2024/01/11 02:23:41;;;;;;;26.35;14.38;;;-4.60;99.90;;;;;;4941511;29;20496;-79
2024/01/11 02:26:07;;;;;;;26.48;15.93;;;-4.60;99.90;;;;;;4944808;29;20022;-79
2024/01/11 02:28:32;;;;;;;50.17;20.35;;;-4.50;99.90;;;;;;4942369;29;20090;-80
2024/01/11 02:30:58;;;;;;;23.30;13.50;;;-4.60;99.90;;;;;;4943479;29;20066;-79
2024/01/11 02:33:24;;;;;;;42.58;20.50;;;-4.60;99.90;;;;;;4945134;29;20025;-78
2024/01/11 02:35:50;;;;;;;29.13;14.75;;;-4.60;99.90;;;;;;4942683;29;20040;-79
2024/01/11 02:38:16;;;;;;;42.50;18.90;;;-4.70;99.90;;;;;;4944781;29;20067;-79
2024/01/11 02:40:43;;;;;;;26.25;13.32;;;-4.80;99.90;;;;;;4943422;29;20032;-79
2024/01/11 02:43:10;;;;;;;27.40;13.73;;;-4.80;99.90;;;;;;4941802;29;20386;-80
2024/01/11 02:45:36;;;;;;;39.38;17.13;;;-4.80;99.90;;;;;;4944709;29;20032;-80
2024/01/11 02:48:01;;;;;;;35.25;17.48;;;-4.80;99.90;;;;;;4945370;29;20047;-79
2024/01/11 02:50:27;;;;;;;36.05;16.40;;;-4.80;99.90;;;;;;4944322;29;20055;-80
2024/01/11 02:52:53;;;;;;;29.73;17.00;;;-4.70;99.90;;;;;;4944173;29;20052;-80
2024/01/11 02:55:18;;;;;;;41.05;18.75;;;-4.70;99.90;;;;;;4943090;29;20055;-81
2024/01/11 02:57:44;;;;;;;45.88;19.80;;;-4.80;99.90;;;;;;4945986;29;20028;-79
2024/01/11 03:00:10;;;;;;;47.47;22.75;;;-4.90;99.90;;;;;;4931429;29;20032;-79
2024/01/11 03:02:38;;;;;;;44.03;18.85;;;-4.90;99.90;;;;;;4937640;29;20388;-80
2024/01/11 03:05:04;;;;;;;40.20;18.35;;;-4.90;99.90;;;;;;4947760;29;20090;-80
2024/01/11 03:07:30;;;;;;;36.83;18.38;;;-5.00;99.90;;;;;;4946864;29;20045;-83
2024/01/11 03:09:56;;;;;;;36.17;17.35;;;-5.00;99.90;;;;;;4942035;29;20028;-84
2024/01/11 03:12:21;;;;;;;34.03;15.30;;;-4.90;99.90;;;;;;4944431;29;20043;-79
2024/01/11 03:14:48;;;;;;;51.60;20.05;;;-4.90;99.90;;;;;;4947635;29;20030;-80
2024/01/11 03:17:13;;;;;;;28.27;13.90;;;-5.00;99.90;;;;;;4946994;29;20036;-80
2024/01/11 03:19:40;;;;;;;33.80;17.25;;;-4.90;99.90;;;;;;4947424;29;20042;-80
2024/01/11 03:22:06;;;;;;;36.88;19.20;;;-4.90;99.90;;;;;;4947874;29;20031;-79
2024/01/11 03:24:32;;;;;;;41.80;18.27;;;-4.90;99.90;;;;;;4947853;29;20043;-76
2024/01/11 03:26:58;;;;;;;34.63;17.77;;;-4.90;99.90;;;;;;4945821;29;20031;-76
2024/01/11 03:29:24;;;;;;;44.88;19.20;;;-4.90;99.90;;;;;;4945974;29;20035;-76
2024/01/11 03:31:49;;;;;;;47.17;20.70;;;-4.90;99.90;;;;;;4945249;29;20095;-76
2024/01/11 03:34:15;;;;;;;47.95;20.75;;;-4.90;99.90;;;;;;4943205;29;20094;-75
2024/01/11 03:36:42;;;;;;;29.95;15.27;;;-4.90;99.90;;;;;;4940354;29;20035;-74
2024/01/11 03:39:07;;;;;;;36.17;19.27;;;-4.90;99.90;;;;;;4942228;29;20050;-73
2024/01/11 03:41:33;;;;;;;41.33;19.92;;;-4.90;99.90;;;;;;4941821;29;20614;-74
2024/01/11 03:43:59;;;;;;;33.28;15.40;;;-4.90;99.90;;;;;;4924919;29;20066;-74
2024/01/11 03:46:25;;;;;;;49.22;21.00;;;-4.80;99.90;;;;;;4941138;29;20042;-74
2024/01/11 03:48:50;;;;;;;41.88;19.13;;;-4.80;99.90;;;;;;4940130;29;20392;-74
2024/01/11 03:51:19;;;;;;;48.63;18.38;;;-4.80;99.90;;;;;;4922575;29;20023;-74
2024/01/11 03:53:44;;;;;;;43.50;19.65;;;-4.80;99.90;;;;;;4940410;29;20036;-75
2024/01/11 03:56:10;;;;;;;40.88;18.52;;;-4.90;99.90;;;;;;4940471;29;20032;-75
2024/01/11 03:58:39;;;;;;;39.50;17.35;;;-4.90;99.90;;;;;;4942404;29;20084;-74
2024/01/11 04:01:04;;;;;;;;;;;-4.90;99.90;;;;;;4940093;29;20040;-74
2024/01/11 04:03:30;;;;;;;33.28;13.70;;;-4.90;99.90;;;;;;4942156;29;19925;-74
2024/01/11 04:05:55;;;;;;;37.55;18.30;;;-4.90;99.90;;;;;;4941010;29;20424;-74
2024/01/11 04:08:21;;;;;;;41.60;19.08;;;-4.90;99.90;;;;;;4920192;29;20091;-76
2024/01/11 04:10:46;;;;;;;25.95;16.83;;;-4.90;99.90;;;;;;4939966;29;20148;-79
2024/01/11 04:13:12;;;;;;;34.83;15.60;;;-4.90;99.90;;;;;;4940096;29;20028;-77
2024/01/11 04:15:38;;;;;;;38.33;19.98;;;-4.90;99.90;;;;;;4940924;29;20036;-75
2024/01/11 04:18:04;;;;;;;23.30;12.65;;;-4.90;99.90;;;;;;4925766;29;20095;-75
2024/01/11 04:20:29;;;;;;;33.95;16.60;;;-4.80;99.90;;;;;;4939593;29;20031;-75
2024/01/11 04:22:55;;;;;;;33.08;12.90;;;-4.80;99.90;;;;;;4939081;29;20055;-75
2024/01/11 04:25:21;;;;;;;27.08;14.07;;;-4.80;99.90;;;;;;4943855;29;20047;-74
2024/01/11 04:27:46;;;;;;;35.58;18.13;;;-4.80;99.90;;;;;;4924770;29;20035;-74
2024/01/11 04:30:12;;;;;;;31.33;15.35;;;-4.80;99.90;;;;;;4941694;29;20032;-74
2024/01/11 04:32:38;;;;;;;28.83;12.90;;;-4.80;99.90;;;;;;4941070;29;20128;-77
2024/01/11 04:35:04;;;;;;;37.97;18.35;;;-4.80;99.90;;;;;;4945366;29;20099;-77
2024/01/11 04:37:30;;;;;;;35.63;17.55;;;-4.80;99.90;;;;;;4943143;29;20036;-77
2024/01/11 04:39:59;;;;;;;31.27;14.43;;;-4.90;99.90;;;;;;4941487;29;20413;-76
2024/01/11 04:42:26;;;;;;;31.30;14.00;;;-4.90;99.90;;;;;;4944452;29;20095;-78
2024/01/11 04:44:52;;;;;;;38.17;16.05;;;-4.90;99.90;;;;;;4944286;29;20031;-83
2024/01/11 04:47:18;;;;;;;37.88;16.75;;;-4.90;99.90;;;;;;4940560;29;20094;-85
2024/01/11 04:49:43;;;;;;;48.08;20.80;;;-5.00;99.90;;;;;;4944611;29;20028;-82
2024/01/11 04:52:09;;;;;;;57.95;22.15;;;-5.00;99.90;;;;;;4948857;29;20047;-80
2024/01/11 04:54:34;;;;;;;37.55;17.15;;;-5.00;99.90;;;;;;4947249;29;20027;-80
2024/01/11 04:57:00;;;;;;;49.15;22.73;;;-5.00;99.90;;;;;;4946279;29;20095;-81
2024/01/11 04:59:26;;;;;;;57.42;22.05;;;-5.10;99.90;;;;;;4946900;29;20063;-80
2024/01/11 05:01:51;;;;;;;38.88;20.27;;;-5.10;99.90;;;;;;4945515;29;20048;-80
2024/01/11 05:04:17;;;;;;;36.15;14.73;;;-5.10;99.90;;;;;;4944779;29;20032;-80
2024/01/11 05:06:42;;;;;;;48.53;21.25;;;-5.10;99.90;;;;;;4931760;29;20034;-80
2024/01/11 05:09:08;;;;;;;48.58;18.50;;;-5.10;99.90;;;;;;4946738;29;20051;-79
2024/01/11 05:11:34;;;;;;;58.78;24.67;;;-5.10;99.90;;;;;;4945847;29;20038;-79
2024/01/11 05:13:59;;;;;;;39.92;16.58;;;-5.20;99.90;;;;;;4945907;29;20039;-79
2024/01/11 05:16:27;;;;;;;57.92;23.90;;;-5.10;99.90;;;;;;4923435;29;20031;-79
2024/01/11 05:18:54;;;;;;;50.97;23.13;;;-5.10;99.90;;;;;;4944400;29;20020;-80
2024/01/11 05:21:20;;;;;;;63.20;24.92;;;-5.10;99.90;;;;;;4942879;29;20039;-79
2024/01/11 05:23:46;;;;;;;47.55;21.33;;;-5.10;99.90;;;;;;4924368;29;20075;-79
2024/01/11 05:26:14;;;;;;;45.53;20.58;;;-5.20;99.90;;;;;;4945970;28;20042;-79
2024/01/11 05:28:40;;;;;;;48.78;20.13;;;-5.20;99.90;;;;;;4948537;29;20056;-79
2024/01/11 05:31:12;;;;;;;59.30;23.73;;;-5.20;99.90;;;;;;4944364;29;20043;-80
2024/01/11 05:33:38;;;;;;;42.15;17.13;;;-5.20;99.90;;;;;;4944341;29;20043;-79
2024/01/11 05:36:05;;;;;;;51.40;20.48;;;-5.20;99.90;;;;;;4944059;29;20543;-79
2024/01/11 05:38:30;;;;;;;51.90;20.67;;;-5.20;99.90;;;;;;4943799;29;20029;-80
2024/01/11 05:40:56;;;;;;;42.83;17.98;;;-5.20;99.90;;;;;;4944444;29;20086;-84
2024/01/11 05:43:23;;;;;;;48.83;20.38;;;-5.20;99.90;;;;;;4940682;29;20032;-74
2024/01/11 05:45:49;;;;;;;22.00;12.57;;;-5.20;99.90;;;;;;4932116;29;20122;-74
2024/01/11 05:48:15;;;;;;;32.15;17.33;;;-5.10;99.90;;;;;;4935069;29;20063;-72
2024/01/11 05:50:41;;;;;;;41.00;17.20;;;-4.90;99.90;;;;;;4936407;29;20042;-73
2024/01/11 05:53:07;;;;;;;34.85;18.63;;;-4.80;99.90;;;;;;4936523;29;20040;-77
2024/01/11 05:55:32;;;;;;;28.52;15.57;;;-4.90;99.90;;;;;;4943583;29;20088;-77
2024/01/11 05:57:58;;;;;;;37.97;15.88;;;-4.80;99.90;;;;;;4943072;29;20046;-76
2024/01/11 06:00:24;;;;;;;33.08;16.08;;;-4.80;99.90;;;;;;4940475;29;20440;-76
2024/01/11 06:02:49;;;;;;;42.05;18.83;;;-4.70;99.90;;;;;;4941266;29;21257;-77
2024/01/11 06:05:15;;;;;;;48.30;19.08;;;-4.80;99.90;;;;;;4941416;29;20087;-77
2024/01/11 06:07:41;;;;;;;47.85;20.48;;;-4.90;99.90;;;;;;4942248;29;20531;-76
2024/01/11 06:10:08;;;;;;;35.67;18.27;;;-5.00;99.90;;;;;;4929392;29;20339;-77
2024/01/11 06:12:35;;;;;;;49.47;20.60;;;-5.10;99.90;;;;;;4944098;29;20114;-77
2024/01/11 06:15:01;;;;;;;31.65;15.77;;;-5.10;99.90;;;;;;4944336;29;20086;-77
2024/01/11 06:17:27;;;;;;;54.58;21.15;;;-5.10;99.90;;;;;;4943383;29;20697;-77
2024/01/11 06:19:52;;;;;;;30.23;18.80;;;-5.10;99.90;;;;;;4941956;29;20064;-77
2024/01/11 06:22:18;;;;;;;41.95;18.52;;;-5.10;99.90;;;;;;4943316;29;20028;-77
2024/01/11 06:24:44;;;;;;;58.80;22.42;;;-5.10;99.90;;;;;;4944413;29;20051;-77
2024/01/11 06:27:10;;;;;;;63.38;26.02;;;-5.10;99.90;;;;;;4943711;29;20044;-77
2024/01/11 06:29:35;;;;;;;62.67;26.63;;;-5.10;99.90;;;;;;4946689;29;20027;-75
2024/01/11 06:32:02;;;;;;;45.22;22.75;;;-5.10;99.90;;;;;;4942638;28;20038;-77
2024/01/11 06:34:28;;;;;;;41.20;19.50;;;-5.20;99.90;;;;;;4942705;28;20028;-76
2024/01/11 06:36:57;;;;;;;37.63;17.67;;;-5.20;99.90;;;;;;4944499;29;20031;-77
2024/01/11 06:39:23;;;;;;;62.72;21.42;;;-5.20;99.90;;;;;;4945159;28;20095;-76
2024/01/11 06:41:48;;;;;;;50.90;22.70;;;-5.20;99.90;;;;;;4927549;29;20028;-76
2024/01/11 06:44:14;;;;;;;54.40;22.30;;;-5.30;99.90;;;;;;4939879;29;20084;-77
2024/01/11 06:46:41;;;;;;;44.70;18.55;;;-5.30;99.90;;;;;;4945592;29;20035;-75
2024/01/11 06:49:07;;;;;;;26.15;14.52;;;-5.40;99.90;;;;;;4919506;29;20072;-76
2024/01/11 06:51:33;;;;;;;44.67;21.05;;;-5.40;99.90;;;;;;4935007;29;20584;-76
2024/01/11 06:54:00;;;;;;;60.53;22.83;;;-5.40;99.90;;;;;;4941815;29;20058;-74
2024/01/11 06:56:27;;;;;;;54.23;20.70;;;-5.40;99.90;;;;;;4943403;29;20028;-75
2024/01/11 06:58:54;;;;;;;61.13;22.02;;;-5.40;99.90;;;;;;4945149;29;20047;-74
2024/01/11 07:01:20;;;;;;;66.10;24.17;;;-5.50;99.90;;;;;;4944393;29;20048;-74
2024/01/11 07:03:45;;;;;;;62.42;23.35;;;-5.60;99.90;;;;;;4940800;29;20107;-73
2024/01/11 07:06:11;;;;;;;55.13;22.40;;;-5.60;99.90;;;;;;4937610;29;20055;-73
2024/01/11 07:08:37;;;;;;;52.42;22.83;;;-5.60;99.90;;;;;;4936922;29;20035;-72
2024/01/11 07:11:03;;;;;;;39.95;19.98;;;-5.60;99.90;;;;;;4934286;28;20036;-72
2024/01/11 07:13:32;;;;;;;64.95;27.17;;;-5.70;99.90;;;;;;4937958;29;20476;-72
2024/01/11 07:15:58;;;;;;;58.72;22.98;;;-5.70;99.90;;;;;;4928887;29;20035;-73
2024/01/11 07:18:26;;;;;;;43.15;18.60;;;-5.70;99.90;;;;;;4934932;29;20038;-72
2024/01/11 07:20:53;;;;;;;;;;;-5.70;99.90;;;;;;4936862;29;20030;-74
2024/01/11 07:23:19;;;;;;;30.80;12.93;;;-5.70;99.90;;;;;;4936272;29;20461;-72
2024/01/11 07:25:44;;;;;;;26.50;15.07;;;-5.80;99.90;;;;;;4933755;29;20464;-73
2024/01/11 07:28:10;;;;;;;27.30;12.07;;;-5.70;99.90;;;;;;4937561;29;20047;-73
2024/01/11 07:30:36;;;;;;;31.48;16.73;;;-5.70;99.90;;;;;;4938408;29;20110;-73
2024/01/11 07:33:02;;;;;;;39.17;19.35;;;-5.70;99.90;;;;;;4916661;29;20240;-72
2024/01/11 07:35:27;;;;;;;52.80;24.60;;;-5.60;99.90;;;;;;4935098;29;20086;-72
2024/01/11 07:37:54;;;;;;;50.60;19.83;;;-5.60;99.90;;;;;;4934654;29;20485;-73
2024/01/11 07:40:19;;;;;;;49.03;20.05;;;-5.60;99.90;;;;;;4937258;29;20032;-72
2024/01/11 07:42:48;;;;;;;37.75;13.90;;;-5.70;99.90;;;;;;4935040;29;20494;-72
2024/01/11 07:45:17;;;;;;;30.63;13.68;;;-5.70;99.90;;;;;;4940134;29;20055;-75
2024/01/11 07:47:49;;;;;;;48.78;20.80;;;-5.60;99.90;;;;;;4940643;29;20383;-73
2024/01/11 07:50:18;;;;;;;43.53;18.73;;;-5.70;99.90;;;;;;4927623;29;20031;-73
2024/01/11 07:52:45;;;;;;;43.92;16.98;;;-5.70;99.90;;;;;;4922809;29;20027;-73
2024/01/11 07:55:12;;;;;;;33.97;15.15;;;-5.60;99.90;;;;;;4938469;29;20886;-73
2024/01/11 07:57:38;;;;;;;34.47;20.17;;;-5.70;99.90;;;;;;4941265;29;20087;-72
2024/01/11 08:00:08;;;;;;;40.13;18.70;;;-5.70;99.90;;;;;;4940445;29;20040;-73
2024/01/11 08:02:34;;;;;;;48.38;20.20;;;-5.60;99.90;;;;;;4933521;29;20067;-77
2024/01/11 08:05:00;;;;;;;43.97;20.30;;;-5.60;99.90;;;;;;4948745;29;20035;-78
2024/01/11 08:07:28;;;;;;;63.22;24.63;;;-5.60;99.90;;;;;;4948528;29;20027;-76
2024/01/11 08:09:55;;;;;;;;;;;-5.60;99.90;;;;;;4948845;29;20091;-77
2024/01/11 08:12:21;;;;;;;43.47;18.85;;;-5.60;99.90;;;;;;4948206;29;19935;-76
2024/01/11 08:14:46;;;;;;;39.65;16.10;;;-5.70;99.90;;;;;;4941943;29;20036;-75
2024/01/11 08:17:13;;;;;;;51.10;23.02;;;-5.60;99.90;;;;;;4942503;29;20038;-75
2024/01/11 08:19:39;;;;;;;49.00;18.52;;;-5.70;99.90;;;;;;4943310;29;20040;-75
2024/01/11 08:22:06;;;;;;;42.47;19.40;;;-5.70;99.90;;;;;;4941674;29;20094;-76
2024/01/11 08:24:32;;;;;;;56.90;22.98;;;-5.70;99.90;;;;;;4940403;29;20055;-75
2024/01/11 08:26:58;;;;;;;56.60;23.27;;;-5.70;99.90;;;;;;4928480;29;20060;-76
2024/01/11 08:29:24;;;;;;;62.72;26.67;;;-5.60;99.90;;;;;;4943022;29;20102;-75
2024/01/11 08:31:50;;;;;;;57.20;24.98;;;-5.70;99.90;;;;;;4940964;29;20064;-75
2024/01/11 08:34:15;;;;;;;61.92;26.25;;;-5.70;99.90;;;;;;4944480;29;20032;-76
2024/01/11 08:36:43;;;;;;;44.92;20.95;;;-5.70;99.90;;;;;;4942960;29;20042;-81
2024/01/11 08:39:11;;;;;;;52.95;22.98;;;-5.70;99.90;;;;;;4942554;29;20389;-77
2024/01/11 08:41:37;;;;;;;47.53;20.42;;;-5.70;99.90;;;;;;4939684;29;20020;-75
2024/01/11 08:44:06;;;;;;;34.78;16.30;;;-5.70;99.90;;;;;;4942038;29;20066;-75
2024/01/11 08:46:36;;;;;;;56.28;24.60;;;-5.70;99.90;;;;;;4941736;29;20167;-75
2024/01/11 08:49:05;;;;;;;42.63;19.67;;;-5.70;99.90;;;;;;4942978;29;20069;-73
2024/01/11 08:51:32;;;;;;;50.03;20.88;;;-5.70;99.90;;;;;;4927586;29;20039;-76
2024/01/11 08:54:01;;;;;;;47.45;20.15;;;-5.70;99.90;;;;;;4941752;29;20023;-76
2024/01/11 08:56:27;;;;;;;54.63;22.50;;;-5.70;99.90;;;;;;4942686;29;20607;-75
2024/01/11 08:58:53;;;;;;;60.05;23.73;;;-5.70;99.90;;;;;;4941901;29;20024;-75
2024/01/11 09:01:20;;;;;;;62.50;24.17;;;-5.70;99.90;;;;;;4935678;29;20039;-75
2024/01/11 09:03:47;;;;;;;49.58;23.17;;;-5.70;99.90;;;;;;4949891;29;20051;-77
2024/01/11 09:06:13;;;;;;;34.03;17.40;;;-5.70;99.90;;;;;;4942494;29;20497;-75
2024/01/11 09:08:41;;;;;;;44.50;20.20;;;-5.60;99.90;;;;;;4943679;29;20047;-75
2024/01/11 09:11:06;;;;;;;57.63;22.73;;;-5.60;99.90;;;;;;4942427;29;20038;-75
2024/01/11 09:13:32;;;;;;;50.85;20.98;;;-5.60;99.90;;;;;;4943583;29;20087;-75
2024/01/11 09:15:58;;;;;;;48.90;19.35;;;-5.50;99.90;;;;;;4941807;29;20020;-75
2024/01/11 09:18:26;;;;;;;41.67;17.52;;;-5.50;99.90;;;;;;4939106;29;20106;-74
2024/01/11 09:20:51;;;;;;;36.25;17.30;;;-5.40;99.90;;;;;;4940516;29;20033;-75
2024/01/11 09:23:18;;;;;;;30.63;13.45;;;-5.40;99.90;;;;;;4942960;29;20091;-75
2024/01/11 09:25:45;;;;;;;37.17;16.25;;;-5.30;99.90;;;;;;4941098;29;20039;-73
2024/01/11 09:28:11;;;;;;;12.93;10.02;;;-5.30;99.90;;;;;;4942094;29;20043;-73
2024/01/11 09:30:39;;;;;;;27.98;12.95;;;-5.30;99.90;;;;;;4940170;29;20432;-74
2024/01/11 09:33:06;;;;;;;31.33;14.25;;;-5.20;99.90;;;;;;4941173;29;20496;-74
2024/01/11 09:35:31;;;;;;;38.83;15.10;;;-5.20;99.90;;;;;;4944098;29;20030;-74
2024/01/11 09:37:57;;;;;;;30.13;16.77;;;-5.20;99.90;;;;;;4942268;29;20023;-74
2024/01/11 09:40:23;;;;;;;27.08;12.82;;;-5.20;99.90;;;;;;4940916;28;20135;-74
2024/01/11 09:42:49;;;;;;;23.90;10.57;;;-5.00;99.90;;;;;;4921079;29;20540;-75
2024/01/11 09:45:18;;;;;;;18.52;11.07;;;-4.90;99.90;;;;;;4947533;29;20055;-75
2024/01/11 09:47:48;;;;;;;30.15;14.50;;;-4.80;99.90;;;;;;4942047;29;20091;-75
2024/01/11 09:50:17;;;;;;;13.18;7.95;;;-4.70;99.90;;;;;;4941773;29;20119;-74
2024/01/11 09:52:47;;;;;;;28.27;12.93;;;-4.60;99.90;;;;;;4941182;29;20110;-74
2024/01/11 09:55:13;;;;;;;34.90;16.50;;;-4.60;99.90;;;;;;4941593;29;20039;-74
2024/01/11 09:57:44;;;;;;;47.70;17.80;;;-4.60;99.90;;;;;;4941182;29;20103;-73
2024/01/11 10:00:12;;;;;;;23.38;15.13;;;-4.50;99.90;;;;;;4941348;29;20047;-75
2024/01/11 10:02:39;;;;;;;30.75;15.20;;;-4.30;99.90;;;;;;4940276;29;20104;-75
2024/01/11 10:05:05;;;;;;;31.80;14.80;;;-4.30;99.90;;;;;;4923873;29;20047;-75
2024/01/11 10:07:33;;;;;;;21.63;12.80;;;-4.30;99.90;;;;;;4939565;29;20075;-75
2024/01/11 10:10:00;;;;;;;32.53;15.15;;;-4.20;99.90;;;;;;4941703;29;20074;-75
2024/01/11 10:12:27;;;;;;;24.70;13.82;;;-4.20;99.90;;;;;;4938812;29;20042;-75
2024/01/11 10:14:53;;;;;;;26.20;15.82;;;-4.10;99.90;;;;;;4937403;29;20038;-74
2024/01/11 10:17:19;;;;;;;29.95;15.95;;;-4.00;99.90;;;;;;4941411;29;20456;-75
2024/01/11 10:19:45;;;;;;;36.30;16.17;;;-4.00;99.90;;;;;;4931411;29;20055;-75
2024/01/11 10:22:16;;;;;;;47.90;19.85;;;-4.10;99.90;;;;;;4941483;29;20381;-74
2024/01/11 10:24:42;;;;;;;47.05;16.98;;;-4.20;99.90;;;;;;4938117;29;20052;-73
2024/01/11 10:27:11;;;;;;;34.17;17.85;;;-4.30;99.90;;;;;;4933726;29;20028;-73
2024/01/11 10:29:39;;;;;;;38.55;17.83;;;-4.00;99.90;;;;;;4934128;29;20031;-73
2024/01/11 10:32:05;;;;;;;37.35;19.48;;;-3.90;99.90;;;;;;4935798;29;20051;-75
2024/01/11 10:34:30;;;;;;;28.63;13.90;;;-3.80;99.90;;;;;;4940852;29;20032;-77
2024/01/11 10:36:57;;;;;;;34.00;17.55;;;-3.80;99.90;;;;;;4941698;29;20477;-76
2024/01/11 10:39:27;;;;;;;36.83;19.35;;;-3.70;99.90;;;;;;4936401;29;20026;-77
2024/01/11 10:42:05;;;;;;;29.45;15.02;;;-3.70;99.90;;;;;;4941610;29;20039;-74
2024/01/11 10:44:35;;;;;;;36.35;18.58;;;-3.60;99.90;;;;;;4938117;29;20046;-76
2024/01/11 10:47:04;;;;;;;41.58;19.33;;;-3.60;99.90;;;;;;4922743;29;20055;-76
2024/01/11 10:49:32;;;;;;;24.35;16.30;;;-3.60;99.90;;;;;;4941705;29;20024;-78
2024/01/11 10:52:04;;;;;;;27.90;14.38;;;-3.50;99.90;;;;;;4930783;29;20032;-75
2024/01/11 10:54:31;;;;;;;30.60;13.32;;;-3.50;99.90;;;;;;4940642;29;20055;-76
2024/01/11 10:57:00;;;;;;;25.13;15.23;;;-3.50;99.90;;;;;;4941407;29;20091;-75
2024/01/11 10:59:31;;;;;;;34.20;18.20;;;-3.50;99.90;;;;;;4941353;29;20044;-75
2024/01/11 11:02:04;;;;;;;32.60;18.27;;;-3.50;99.90;;;;;;4933835;29;20059;-74
2024/01/11 11:04:32;;;;;;;35.58;16.98;;;-3.50;99.90;;;;;;4942792;29;20469;-75
2024/01/11 11:07:01;;;;;;;36.13;16.02;;;-3.40;99.90;;;;;;4941962;29;20024;-75
2024/01/11 11:09:28;;;;;;;40.90;18.33;;;-3.40;99.90;;;;;;4927917;29;20051;-75
2024/01/11 11:11:58;;;;;;;51.17;19.10;;;-3.30;99.90;;;;;;4941153;29;20070;-75
2024/01/11 11:14:24;;;;;;;37.97;17.83;;;-3.40;99.90;;;;;;4940434;29;20023;-75
2024/01/11 11:16:55;;;;;;;31.60;13.40;;;-3.30;99.90;;;;;;4940509;29;20040;-76
2024/01/11 11:19:21;;;;;;;36.00;16.77;;;-3.30;99.90;;;;;;4945497;29;20039;-75
2024/01/11 11:21:48;;;;;;;26.65;14.85;;;-3.30;99.90;;;;;;4943717;29;20023;-76
2024/01/11 11:24:16;;;;;;;43.17;18.73;;;-3.20;99.90;;;;;;4945548;29;20139;-75
2024/01/11 11:26:42;;;;;;;51.58;19.55;;;-3.30;99.90;;;;;;4946262;29;20051;-76
2024/01/11 11:29:09;;;;;;;27.00;13.40;;;-3.30;99.90;;;;;;4944858;29;20050;-75
2024/01/11 11:31:47;;;;;;;38.05;16.83;;;-3.30;99.90;;;;;;4942794;29;20030;-75
2024/01/11 11:34:13;;;;;;;30.45;15.85;;;-3.30;99.90;;;;;;4948004;29;20046;-75
2024/01/11 11:36:52;;;;;;;36.03;16.38;;;-3.30;99.90;;;;;;4947029;29;20032;-76
2024/01/11 11:39:19;;;;;;;25.35;14.20;;;-3.20;99.90;;;;;;4944308;29;20087;-76
2024/01/11 11:41:49;;;;;;;47.72;20.50;;;-3.20;99.90;;;;;;4947492;29;20054;-76
2024/01/11 11:44:16;;;;;;;36.38;16.20;;;-3.10;99.90;;;;;;4950822;28;20054;-79
2024/01/11 11:46:43;;;;;;;35.33;15.23;;;-3.10;99.90;;;;;;4949480;29;20062;-79
2024/01/11 11:49:10;;;;;;;33.50;16.08;;;-3.20;99.90;;;;;;4948351;29;20099;-79
2024/01/11 11:51:40;;;;;;;35.10;16.30;;;-3.20;99.90;;;;;;4947835;29;20023;-78
2024/01/11 11:54:09;;;;;;;40.50;19.15;;;-3.20;99.90;;;;;;4948652;29;20028;-78
2024/01/11 11:56:36;;;;;;;45.83;20.73;;;-3.20;99.90;;;;;;4951834;29;20063;-79
2024/01/11 11:59:03;;;;;;;37.67;17.80;;;-3.50;99.90;;;;;;4948087;28;20063;-78
2024/01/11 12:01:31;;;;;;;36.72;15.73;;;-3.70;99.90;;;;;;4949773;29;20059;-78
2024/01/11 12:03:57;;;;;;;43.53;19.67;;;-3.80;99.90;;;;;;4944002;28;20062;-78
2024/01/11 12:06:24;;;;;;;54.83;20.92;;;-3.80;99.90;;;;;;4945493;29;20580;-79
2024/01/11 12:08:53;;;;;;;58.92;20.67;;;-3.90;99.90;;;;;;4954627;29;20110;-78
2024/01/11 12:11:21;;;;;;;46.75;17.92;;;-3.70;99.90;;;;;;4947892;28;20380;-78
2024/01/11 12:13:48;;;;;;;42.33;20.10;;;-3.60;99.90;;;;;;4958021;28;20484;-79
2024/01/11 12:16:14;;;;;;;47.55;22.67;;;-3.60;99.90;;;;;;4948425;28;20031;-78
2024/01/11 12:18:41;;;;;;;45.38;17.77;;;-3.50;99.90;;;;;;4946594;29;20079;-78
2024/01/11 12:21:07;;;;;;;39.70;18.67;;;-3.50;99.90;;;;;;4940205;28;20044;-78
2024/01/11 12:23:35;;;;;;;38.08;16.92;;;-3.40;99.90;;;;;;4944913;29;22066;-78
2024/01/11 12:26:07;;;;;;;38.40;17.27;;;-3.50;99.90;;;;;;4948012;28;20031;-78